createdAt,value
2019-02-03T00:01:23.228Z,3.70
2019-02-03T00:03:51.227Z,3.40
2019-02-03T00:06:20.572Z,3.60
2019-02-03T00:08:51.499Z,3.60
2019-02-03T00:11:19.520Z,3.80
2019-02-03T00:13:47.597Z,3.50
2019-02-03T00:16:15.638Z,3.50
2019-02-03T00:18:46.716Z,3.50
2019-02-03T00:21:14.770Z,3.40
2019-02-03T00:23:42.874Z,3.20
2019-02-03T00:26:10.794Z,3.60
2019-02-03T00:28:38.651Z,3.30
2019-02-03T00:31:06.790Z,3.50
2019-02-03T00:33:35.024Z,3.60
2019-02-03T00:36:03.340Z,3.20
2019-02-03T00:38:31.802Z,3.50
2019-02-03T00:41:02.548Z,3.20
2019-02-03T00:43:30.487Z,3.20
2019-02-03T00:46:01.678Z,3.20
2019-02-03T00:48:29.765Z,3.30
2019-02-03T00:50:57.871Z,3.30
2019-02-03T00:53:25.736Z,3.40
2019-02-03T00:55:53.986Z,3.00
2019-02-03T00:58:22.022Z,3.30
2019-02-03T01:00:49.948Z,3.20
2019-02-03T01:03:17.919Z,3.20
2019-02-03T01:05:45.762Z,3.10
2019-02-03T01:08:14.322Z,3.00
2019-02-03T01:10:42.395Z,2.70
2019-02-03T01:13:10.388Z,2.90
2019-02-03T01:15:38.298Z,3.10
2019-02-03T01:18:06.797Z,3.10
2019-02-03T01:20:34.712Z,3.40
2019-02-03T01:23:03.045Z,3.10
2019-02-03T01:25:30.940Z,3.00
2019-02-03T01:27:58.840Z,3.00
2019-02-03T01:30:26.839Z,2.90
2019-02-03T01:32:54.758Z,3.20
2019-02-03T01:35:22.750Z,3.20
2019-02-03T01:37:51.228Z,3.60
2019-02-03T01:40:19.824Z,3.20
2019-02-03T01:42:47.846Z,3.50
2019-02-03T01:45:18.138Z,3.60
2019-02-03T01:47:46.622Z,2.90
2019-02-03T01:50:17.166Z,3.50
2019-02-03T01:52:45.182Z,3.80
2019-02-03T01:55:18.113Z,3.60
2019-02-03T01:57:46.030Z,3.70
2019-02-03T02:00:20.444Z,4.00
2019-02-03T02:02:48.514Z,4.30
2019-02-03T02:05:16.965Z,4.00
2019-02-03T02:07:51.862Z,3.80
2019-02-03T02:10:18.324Z,3.80
2019-02-03T02:12:46.242Z,3.80
2019-02-03T02:15:16.043Z,3.70
2019-02-03T02:17:43.963Z,3.80
2019-02-03T02:20:19.379Z,3.70
2019-02-03T02:22:47.331Z,3.90
2019-02-03T02:25:15.607Z,3.80
2019-02-03T02:27:43.527Z,3.60
2019-02-03T02:30:15.186Z,3.40
2019-02-03T02:32:43.193Z,3.50
2019-02-03T02:35:11.802Z,3.40
2019-02-03T02:37:39.726Z,3.40
2019-02-03T02:40:22.644Z,4.00
2019-02-03T02:42:50.448Z,4.10
2019-02-03T02:45:18.389Z,4.00
2019-02-03T02:47:46.441Z,3.60
2019-02-03T02:50:27.200Z,4.10
2019-02-03T02:52:55.188Z,3.70
2019-02-03T02:55:23.058Z,3.90
2019-02-03T02:57:51.313Z,4.20
2019-02-03T03:00:24.506Z,3.90
2019-02-03T03:02:52.532Z,4.00
2019-02-03T03:05:20.941Z,3.80
2019-02-03T03:07:48.997Z,3.70
2019-02-03T03:10:18.103Z,4.10
2019-02-03T03:12:46.143Z,3.70
2019-02-03T03:15:15.671Z,3.60
2019-02-03T03:17:43.706Z,3.60
2019-02-03T03:20:14.636Z,3.70
2019-02-03T03:22:43.028Z,3.60
2019-02-03T03:25:14.232Z,3.30
2019-02-03T03:27:42.295Z,3.40
2019-02-03T03:30:21.429Z,3.60
2019-02-03T03:32:49.495Z,3.50
2019-02-03T03:35:17.562Z,3.10
2019-02-03T03:37:46.274Z,3.50
2019-02-03T03:40:17.334Z,3.70
2019-02-03T03:42:48.349Z,3.20
2019-02-03T03:45:16.278Z,4.00
2019-02-03T03:47:46.563Z,3.50
2019-02-03T03:50:16.611Z,3.40
2019-02-03T03:52:47.889Z,3.80
2019-02-03T03:55:17.136Z,3.40
2019-02-03T03:57:46.737Z,3.50
2019-02-03T04:00:23.121Z,3.50
2019-02-03T04:02:53.679Z,3.40
2019-02-03T04:05:28.563Z,3.20
2019-02-03T04:07:57.384Z,3.30
2019-02-03T04:10:25.892Z,3.40
2019-02-03T04:12:54.863Z,3.40
2019-02-03T04:15:23.632Z,3.20
2019-02-03T04:17:51.978Z,3.20
2019-02-03T04:20:29.382Z,3.30
2019-02-03T04:22:57.920Z,3.50
2019-02-03T04:25:27.245Z,3.30
2019-02-03T04:27:56.976Z,3.60
2019-02-03T04:30:26.480Z,3.10
2019-02-03T04:32:55.779Z,3.50
2019-02-03T04:35:29.589Z,3.20
2019-02-03T04:38:00.532Z,3.10
2019-02-03T04:40:45.760Z,3.20
2019-02-03T04:43:13.970Z,3.20
2019-02-03T04:45:41.882Z,3.10
2019-02-03T04:48:09.843Z,3.00
2019-02-03T04:50:37.737Z,3.20
2019-02-03T04:53:06.062Z,3.10
2019-02-03T04:55:33.986Z,3.30
2019-02-03T04:58:01.834Z,3.00
2019-02-03T05:00:29.798Z,2.90
2019-02-03T05:02:57.761Z,2.80
2019-02-03T05:05:29.543Z,2.90
2019-02-03T05:07:57.637Z,3.10
2019-02-03T05:10:25.529Z,2.90
2019-02-03T05:12:53.384Z,2.60
2019-02-03T05:15:23.158Z,2.70
2019-02-03T05:17:51.138Z,2.70
2019-02-03T05:20:22.526Z,2.60
2019-02-03T05:22:50.517Z,2.50
2019-02-03T05:25:18.450Z,2.50
2019-02-03T05:27:46.480Z,2.80
2019-02-03T05:30:21.241Z,2.80
2019-02-03T05:32:49.278Z,2.70
2019-02-03T05:35:17.733Z,3.40
2019-02-03T05:37:48.177Z,2.10
2019-02-03T05:40:16.486Z,2.80
2019-02-03T05:42:45.034Z,2.70
2019-02-03T05:45:16.063Z,3.00
2019-02-03T05:47:44.164Z,2.80
2019-02-03T05:50:14.213Z,3.00
2019-02-03T05:52:43.457Z,3.00
2019-02-03T05:55:11.820Z,2.80
2019-02-03T05:57:39.804Z,3.20
2019-02-03T06:00:12.307Z,3.20
2019-02-03T06:02:40.677Z,2.90
2019-02-03T06:05:08.878Z,3.50
2019-02-03T06:07:36.862Z,3.30
2019-02-03T06:10:08.950Z,3.20
2019-02-03T06:12:39.742Z,3.40
2019-02-03T06:15:08.128Z,3.40
2019-02-03T06:17:36.211Z,3.30
2019-02-03T06:20:05.773Z,3.30
2019-02-03T06:22:33.888Z,3.20
2019-02-03T06:25:01.749Z,3.20
2019-02-03T06:27:32.023Z,3.10
2019-02-03T06:29:59.873Z,3.00
2019-02-03T06:32:27.874Z,3.10
2019-02-03T06:34:57.214Z,2.90
2019-02-03T06:37:25.110Z,3.20
2019-02-03T06:39:54.460Z,2.90
2019-02-03T06:42:22.383Z,2.90
2019-02-03T06:44:50.344Z,2.90
2019-02-03T06:47:24.219Z,2.50
2019-02-03T06:49:52.091Z,2.50
2019-02-03T06:52:19.955Z,2.30
2019-02-03T06:54:47.914Z,2.70
2019-02-03T06:57:15.820Z,2.70
2019-02-03T06:59:50.933Z,2.20
2019-02-03T07:02:13.944Z,2.40
2019-02-03T07:04:41.869Z,2.40
2019-02-03T07:07:09.767Z,2.40
2019-02-03T07:09:37.565Z,2.50
2019-02-03T07:12:05.676Z,2.40
2019-02-03T07:14:33.955Z,2.30
2019-02-03T07:17:01.775Z,2.30
2019-02-03T07:19:29.719Z,2.50
2019-02-03T07:21:57.643Z,2.00
2019-02-03T07:24:25.445Z,2.00
2019-02-03T07:26:53.251Z,2.50
2019-02-03T07:29:21.184Z,2.40
2019-02-03T07:31:49.010Z,2.20
2019-02-03T07:34:16.790Z,2.50
2019-02-03T07:36:44.713Z,2.30
2019-02-03T07:39:12.520Z,2.40
2019-02-03T07:41:40.360Z,2.20
2019-02-03T07:44:08.447Z,2.30
2019-02-03T07:46:36.662Z,2.40
2019-02-03T07:49:04.586Z,2.30
2019-02-03T07:51:32.505Z,2.30
2019-02-03T07:54:08.098Z,2.20
2019-02-03T07:56:30.194Z,2.30
2019-02-03T07:58:58.300Z,2.20
2019-02-03T08:01:26.412Z,2.30
2019-02-03T08:03:54.363Z,2.20
2019-02-03T08:06:22.176Z,2.60
2019-02-03T08:08:49.987Z,2.80
2019-02-03T08:11:18.047Z,2.80
2019-02-03T08:13:45.852Z,2.80
2019-02-03T08:16:13.872Z,2.50
2019-02-03T08:18:41.993Z,2.60
2019-02-03T08:21:09.835Z,2.70
2019-02-03T08:23:37.716Z,2.80
2019-02-03T08:26:05.631Z,2.70
2019-02-03T08:28:33.537Z,2.90
2019-02-03T08:31:01.354Z,2.90
2019-02-03T08:33:29.454Z,3.00
2019-02-03T08:35:57.396Z,2.60
2019-02-03T08:38:25.187Z,2.80
2019-02-03T08:40:53.259Z,2.90
2019-02-03T08:43:21.177Z,3.20
2019-02-03T08:45:49.079Z,2.90
2019-02-03T08:48:17.017Z,2.90
2019-02-03T08:50:44.805Z,2.90
2019-02-03T08:53:12.717Z,3.20
2019-02-03T08:55:40.507Z,3.20
2019-02-03T08:58:08.443Z,3.50
2019-02-03T09:00:36.442Z,3.20
2019-02-03T09:03:04.570Z,3.20
2019-02-03T09:05:32.447Z,3.60
2019-02-03T09:08:00.548Z,3.50
2019-02-03T09:10:28.573Z,3.80
2019-02-03T09:12:56.479Z,3.70
2019-02-03T09:15:25.027Z,3.70
2019-02-03T09:17:52.996Z,4.00
2019-02-03T09:20:27.579Z,4.30
2019-02-03T09:22:55.422Z,4.20
2019-02-03T09:25:23.321Z,4.10
2019-02-03T09:27:51.369Z,3.90
2019-02-03T09:30:22.284Z,4.40
2019-02-03T09:32:50.558Z,4.40
2019-02-03T09:35:18.701Z,4.80
2019-02-03T09:37:46.714Z,4.70
2019-02-03T09:40:25.022Z,4.70
2019-02-03T09:42:52.971Z,5.20
2019-02-03T09:45:22.194Z,5.00
2019-02-03T09:47:50.537Z,5.10
2019-02-03T09:50:23.953Z,5.40
2019-02-03T09:52:54.254Z,5.20
2019-02-03T09:55:22.245Z,5.80
2019-02-03T09:57:50.037Z,5.70
2019-02-03T10:00:26.776Z,5.90
2019-02-03T10:02:56.423Z,6.00
2019-02-03T10:05:24.577Z,5.80
2019-02-03T10:07:52.745Z,6.10
2019-02-03T10:10:35.372Z,6.30
2019-02-03T10:13:04.182Z,6.40
2019-02-03T10:15:36.075Z,6.90
2019-02-03T10:18:06.864Z,6.80
2019-02-03T10:20:34.977Z,6.60
2019-02-03T10:23:03.375Z,6.90
2019-02-03T10:25:31.758Z,6.60
2019-02-03T10:27:59.605Z,6.60
2019-02-03T10:30:27.836Z,6.60
2019-02-03T10:32:59.269Z,6.90
2019-02-03T10:35:27.750Z,6.60
2019-02-03T10:37:58.783Z,6.70
2019-02-03T10:40:33.473Z,6.80
2019-02-03T10:43:02.227Z,6.60
2019-02-03T10:45:30.983Z,6.70
2019-02-03T10:47:59.695Z,6.80
2019-02-03T10:50:34.266Z,6.70
2019-02-03T10:53:05.153Z,7.30
2019-02-03T10:55:33.291Z,7.00
2019-02-03T10:58:01.582Z,7.30
2019-02-03T11:00:32.790Z,7.40
2019-02-03T11:03:01.330Z,7.50
2019-02-03T11:05:36.715Z,7.40
2019-02-03T11:08:06.204Z,7.60
2019-02-03T11:10:34.476Z,7.30
2019-02-03T11:13:02.324Z,7.60
2019-02-03T11:15:30.327Z,7.50
2019-02-03T11:17:58.273Z,7.30
2019-02-03T11:20:29.129Z,7.60
2019-02-03T11:23:16.886Z,7.30
2019-02-03T11:25:45.063Z,7.50
2019-02-03T11:28:13.091Z,7.80
2019-02-03T11:30:40.952Z,7.40
2019-02-03T11:33:10.037Z,7.40
2019-02-03T11:35:38.297Z,7.80
2019-02-03T11:38:06.830Z,7.90
2019-02-03T11:40:39.328Z,8.00
2019-02-03T11:43:07.446Z,8.10
2019-02-03T11:45:40.950Z,8.00
2019-02-03T11:48:18.605Z,7.40
2019-02-03T11:50:46.808Z,8.10
2019-02-03T11:53:18.430Z,7.70
2019-02-03T11:55:46.433Z,8.10
2019-02-03T11:58:14.265Z,7.70
2019-02-03T12:00:42.319Z,7.90
2019-02-03T12:03:10.482Z,7.70
2019-02-03T12:05:38.935Z,8.00
2019-02-03T12:08:07.387Z,8.10
2019-02-03T12:10:38.449Z,8.40
2019-02-03T12:13:09.542Z,8.30
2019-02-03T12:15:37.687Z,8.20
2019-02-03T12:18:06.401Z,8.10
2019-02-03T12:20:35.589Z,7.80
2019-02-03T12:23:04.395Z,8.50
2019-02-03T12:25:34.984Z,8.10
2019-02-03T12:28:05.981Z,8.20
2019-02-03T12:30:34.577Z,8.40
2019-02-03T12:33:03.053Z,8.30
2019-02-03T12:35:30.978Z,8.30
2019-02-03T12:37:59.056Z,8.20
2019-02-03T12:40:31.696Z,8.80
2019-02-03T12:42:59.811Z,8.60
2019-02-03T12:45:29.156Z,8.60
2019-02-03T12:47:57.110Z,8.90
2019-02-03T12:50:25.049Z,8.50
2019-02-03T12:52:53.203Z,8.60
2019-02-03T12:55:24.945Z,8.70
2019-02-03T12:57:53.036Z,8.70
2019-02-03T13:00:27.066Z,9.00
2019-02-03T13:02:55.152Z,9.20
2019-02-03T13:05:25.098Z,9.10
2019-02-03T13:07:54.313Z,9.10
2019-02-03T13:10:25.705Z,9.10
2019-02-03T13:12:54.144Z,8.70
2019-02-03T13:15:37.799Z,9.00
2019-02-03T13:18:07.017Z,9.10
2019-02-03T13:20:35.382Z,9.00
2019-02-03T13:23:05.221Z,9.20
2019-02-03T13:25:33.142Z,9.20
2019-02-03T13:28:01.166Z,9.10
2019-02-03T13:30:38.084Z,8.70
2019-02-03T13:33:06.651Z,8.50
2019-02-03T13:35:34.521Z,8.40
2019-02-03T13:38:03.120Z,9.20
2019-02-03T13:40:32.486Z,9.10
2019-02-03T13:43:02.424Z,9.10
2019-02-03T13:45:31.916Z,9.10
2019-02-03T13:48:03.289Z,9.10
2019-02-03T13:50:32.409Z,9.30
2019-02-03T13:53:02.496Z,9.00
2019-02-03T13:55:35.068Z,9.10
2019-02-03T13:58:07.017Z,9.50
2019-02-03T14:00:43.674Z,9.20
2019-02-03T14:03:16.739Z,9.10
2019-02-03T14:05:48.830Z,8.30
2019-02-03T14:08:19.385Z,9.10
2019-02-03T14:10:49.484Z,9.20
2019-02-03T14:13:19.953Z,9.20
2019-02-03T14:15:50.571Z,9.10
2019-02-03T14:18:23.611Z,9.00
2019-02-03T14:20:54.852Z,9.40
2019-02-03T14:23:24.708Z,9.50
2019-02-03T14:25:59.486Z,9.30
2019-02-03T14:28:28.929Z,9.60
2019-02-03T14:31:17.672Z,9.60
2019-02-03T14:33:46.193Z,9.40
2019-02-03T14:36:16.330Z,9.70
2019-02-03T14:38:46.531Z,10.10
2019-02-03T14:41:20.982Z,10.10
2019-02-03T14:43:49.517Z,9.50
2019-02-03T14:46:18.012Z,10.10
2019-02-03T14:48:51.443Z,9.80
2019-02-03T14:51:27.162Z,10.00
2019-02-03T14:53:59.938Z,10.30
2019-02-03T14:56:34.757Z,10.30
2019-02-03T14:59:06.232Z,10.90
2019-02-03T15:01:38.419Z,10.50
2019-02-03T15:04:07.002Z,9.90
2019-02-03T15:06:38.299Z,10.00
2019-02-03T15:09:12.835Z,10.00
2019-02-03T15:11:41.001Z,9.60
2019-02-03T15:14:09.119Z,9.90
2019-02-03T15:16:42.214Z,9.70
2019-02-03T15:19:10.295Z,9.80
2019-02-03T15:21:40.022Z,9.90
2019-02-03T15:24:16.424Z,9.50
2019-02-03T15:26:43.807Z,9.40
2019-02-03T15:29:11.728Z,9.00
2019-02-03T15:31:40.179Z,9.00
2019-02-03T15:34:11.694Z,8.60
2019-02-03T15:36:44.294Z,9.10
2019-02-03T15:39:17.321Z,8.80
2019-02-03T15:41:52.502Z,8.80
2019-02-03T15:44:21.304Z,8.60
2019-02-03T15:46:58.499Z,8.50
2019-02-03T15:49:35.386Z,8.70
2019-02-03T15:52:03.673Z,8.80
2019-02-03T15:54:36.670Z,8.20
2019-02-03T15:57:05.094Z,8.10
2019-02-03T15:59:34.381Z,8.70
2019-02-03T16:02:03.657Z,8.30
2019-02-03T16:04:36.716Z,8.60
2019-02-03T16:07:07.678Z,8.20
2019-02-03T16:09:37.754Z,8.20
2019-02-03T16:12:08.468Z,7.80
2019-02-03T16:14:36.553Z,7.80
2019-02-03T16:17:05.158Z,7.90
2019-02-03T16:19:35.659Z,8.20
2019-02-03T16:22:03.973Z,7.80
2019-02-03T16:24:32.400Z,7.90
2019-02-03T16:27:01.070Z,7.80
2019-02-03T16:29:29.386Z,7.90
2019-02-03T16:31:57.406Z,8.10
2019-02-03T16:34:25.410Z,7.70
2019-02-03T16:36:53.503Z,7.50
2019-02-03T16:39:21.411Z,7.10
2019-02-03T16:41:49.437Z,7.30
2019-02-03T16:44:17.652Z,7.10
2019-02-03T16:46:45.758Z,6.90
2019-02-03T16:49:16.548Z,6.90
2019-02-03T16:51:44.267Z,6.60
2019-02-03T16:54:14.692Z,7.00
2019-02-03T16:56:44.003Z,6.80
2019-02-03T16:59:11.897Z,6.80
2019-02-03T17:01:42.219Z,6.30
2019-02-03T17:04:15.076Z,6.40
2019-02-03T17:06:43.003Z,6.40
2019-02-03T17:09:11.438Z,6.20
2019-02-03T17:11:39.503Z,6.20
2019-02-03T17:14:07.620Z,5.90
2019-02-03T17:16:35.713Z,5.40
2019-02-03T17:19:04.904Z,5.80
2019-02-03T17:21:33.011Z,5.60
2019-02-03T17:24:03.549Z,5.40
2019-02-03T17:26:30.905Z,5.20
2019-02-03T17:28:59.011Z,5.50
2019-02-03T17:31:27.086Z,5.40
2019-02-03T17:35:16.075Z,5.60
2019-02-03T17:37:44.122Z,5.20
2019-02-03T17:40:12.719Z,5.20
2019-02-03T17:42:40.684Z,5.30
2019-02-03T17:45:13.662Z,5.00
2019-02-03T17:47:41.883Z,5.00
2019-02-03T17:50:14.118Z,5.00
2019-02-03T17:52:42.188Z,4.90
2019-02-03T17:55:11.757Z,5.10
2019-02-03T17:57:39.836Z,4.90
2019-02-03T18:00:12.913Z,4.70
2019-02-03T18:02:40.983Z,5.10
2019-02-03T18:05:10.696Z,5.00
2019-02-03T18:07:40.931Z,4.50
2019-02-03T18:10:13.799Z,4.40
2019-02-03T18:12:41.847Z,4.80
2019-02-03T18:15:10.638Z,4.50
2019-02-03T18:17:40.818Z,4.40
2019-02-03T18:20:13.558Z,4.30
2019-02-03T18:22:41.418Z,4.60
2019-02-03T18:25:10.220Z,4.50
2019-02-03T18:27:38.591Z,4.40
2019-02-03T18:30:13.270Z,4.10
2019-02-03T18:32:41.793Z,4.20
2019-02-03T18:35:09.950Z,4.40
2019-02-03T18:37:37.825Z,4.30
2019-02-03T18:40:07.646Z,4.10
2019-02-03T18:42:36.159Z,4.20
2019-02-03T18:45:06.822Z,4.50
2019-02-03T18:47:34.682Z,4.50
2019-02-03T18:50:04.618Z,3.90
2019-02-03T18:52:33.193Z,4.40
2019-02-03T18:55:01.106Z,4.40
2019-02-03T18:57:28.945Z,4.30
2019-02-03T18:59:57.691Z,4.30
2019-02-03T19:02:25.633Z,4.20
2019-02-03T19:04:53.652Z,4.40
2019-02-03T19:07:21.550Z,3.80
2019-02-03T19:09:49.401Z,4.20
2019-02-03T19:12:18.091Z,3.90
2019-02-03T19:14:47.709Z,3.90
2019-02-03T19:17:19.775Z,3.80
2019-02-03T19:19:47.813Z,3.80
2019-02-03T19:22:15.654Z,4.00
2019-02-03T19:24:43.578Z,3.80
2019-02-03T19:27:12.583Z,4.10
2019-02-03T19:29:40.447Z,4.00
2019-02-03T19:32:08.558Z,3.70
2019-02-03T19:34:36.836Z,4.00
2019-02-03T19:37:05.849Z,4.10
2019-02-03T19:39:34.079Z,3.70
2019-02-03T19:42:02.279Z,3.80
2019-02-03T19:44:30.231Z,3.80
2019-02-03T19:47:01.000Z,3.50
2019-02-03T19:49:29.353Z,4.10
2019-02-03T19:52:00.015Z,3.50
2019-02-03T19:54:28.347Z,3.70
2019-02-03T19:56:58.787Z,3.70
2019-02-03T19:59:26.829Z,3.70
2019-02-03T20:01:54.728Z,3.60
2019-02-03T20:04:22.609Z,3.30
2019-02-03T20:06:57.562Z,3.20
2019-02-03T20:09:25.890Z,3.50
2019-02-03T20:11:58.394Z,3.40
2019-02-03T20:14:27.195Z,3.60
2019-02-03T20:16:55.175Z,3.50
2019-02-03T20:19:23.093Z,3.50
2019-02-03T20:21:52.789Z,3.20
2019-02-03T20:24:21.556Z,3.40
2019-02-03T20:26:49.510Z,3.40
2019-02-03T20:29:17.714Z,3.30
2019-02-03T20:31:45.914Z,3.20
2019-02-03T20:34:19.354Z,3.70
2019-02-03T20:36:50.111Z,3.20
2019-02-03T20:39:21.358Z,3.40
2019-02-03T20:41:52.369Z,3.40
2019-02-03T20:44:20.319Z,3.30
2019-02-03T20:46:48.359Z,3.20
2019-02-03T20:49:16.359Z,3.20
2019-02-03T20:51:44.256Z,3.50
2019-02-03T20:54:12.357Z,3.10
2019-02-03T20:56:42.325Z,3.10
2019-02-03T20:59:10.287Z,2.90
2019-02-03T21:01:44.454Z,3.40
2019-02-03T21:04:12.615Z,3.00
2019-02-03T21:06:40.988Z,3.20
2019-02-03T21:09:09.423Z,3.10
2019-02-03T21:11:37.968Z,2.90
2019-02-03T21:14:06.211Z,3.10
2019-02-03T21:16:34.316Z,3.20
2019-02-03T21:19:02.346Z,3.10
2019-02-03T21:21:35.792Z,3.10
2019-02-03T21:24:03.820Z,3.20
2019-02-03T21:26:35.342Z,3.20
2019-02-03T21:29:04.899Z,3.00
2019-02-03T21:31:34.005Z,3.10
2019-02-03T21:34:03.642Z,2.90
2019-02-03T21:36:31.689Z,2.90
2019-02-03T21:39:01.267Z,2.80
2019-02-03T21:41:29.259Z,2.80
2019-02-03T21:43:57.356Z,3.10
2019-02-03T21:46:27.260Z,2.90
2019-02-03T21:48:55.232Z,3.00
2019-02-03T21:51:23.662Z,2.80
2019-02-03T21:53:51.837Z,2.60
2019-02-03T21:56:19.777Z,2.60
2019-02-03T21:58:47.713Z,2.70
2019-02-03T22:01:17.279Z,2.70
2019-02-03T22:03:45.295Z,2.40
2019-02-03T22:06:14.684Z,2.60
2019-02-03T22:08:42.696Z,2.30
2019-02-03T22:11:10.635Z,2.30
2019-02-03T22:13:38.539Z,2.50
2019-02-03T22:16:06.693Z,2.50
2019-02-03T22:18:34.571Z,2.50
2019-02-03T22:21:05.680Z,2.30
2019-02-03T22:23:33.883Z,2.70
2019-02-03T22:26:03.461Z,2.20
2019-02-03T22:28:34.361Z,2.40
2019-02-03T22:31:04.634Z,2.80
2019-02-03T22:33:33.313Z,2.60
2019-02-03T22:36:03.789Z,2.70
2019-02-03T22:38:31.925Z,2.40
2019-02-03T22:41:01.518Z,2.70
2019-02-03T22:43:29.659Z,2.50
2019-02-03T22:46:07.097Z,2.20
2019-02-03T22:48:30.457Z,2.40
2019-02-03T22:50:58.641Z,2.50
2019-02-03T22:53:29.531Z,2.20
2019-02-03T22:55:57.583Z,2.40
2019-02-03T22:58:30.234Z,2.70
2019-02-03T23:01:13.907Z,1.80
2019-02-03T23:04:20.627Z,2.00
2019-02-03T23:06:51.746Z,2.40
2019-02-03T23:09:26.855Z,2.30
2019-02-03T23:11:55.457Z,2.10
2019-02-03T23:14:23.531Z,2.10
2019-02-03T23:16:51.562Z,2.20
2019-02-03T23:19:22.855Z,1.80
2019-02-03T23:21:51.040Z,1.90
2019-02-03T23:24:22.044Z,1.90
2019-02-03T23:26:52.578Z,2.10
2019-02-03T23:29:22.998Z,1.80
2019-02-03T23:31:53.811Z,1.90
2019-02-03T23:34:23.867Z,1.90
2019-02-03T23:36:53.328Z,2.10
2019-02-03T23:39:21.590Z,2.20
2019-02-03T23:41:49.419Z,1.90
2019-02-03T23:44:17.691Z,2.10
2019-02-03T23:46:45.730Z,2.00
2019-02-03T23:49:13.647Z,2.10
2019-02-03T23:51:41.773Z,1.90
2019-02-03T23:54:09.864Z,2.00
2019-02-03T23:56:37.836Z,1.70
2019-02-03T23:59:06.315Z,1.90
